sensor_id;sensor_type;location;lat;lon;timestamp;P1;durP1;ratioP1;P2;durP2;ratioP2
75426;SDS011;64007;50.632;13.700;2023-04-24T00:00:42;6.90;;;2.40;;
75426;SDS011;64007;50.632;13.700;2023-04-24T00:03:24;6.13;;;2.28;;
75426;SDS011;64007;50.632;13.700;2023-04-24T00:05:50;4.95;;;2.40;;
75426;SDS011;64007;50.632;13.700;2023-04-24T00:08:16;4.85;;;2.40;;
75426;SDS011;64007;50.632;13.700;2023-04-24T00:10:42;7.22;;;2.30;;
75426;SDS011;64007;50.632;13.700;2023-04-24T00:13:08;6.05;;;2.63;;
75426;SDS011;64007;50.632;13.700;2023-04-24T00:15:34;4.35;;;2.35;;
75426;SDS011;64007;50.632;13.700;2023-04-24T00:17:59;4.78;;;2.83;;
75426;SDS011;64007;50.632;13.700;2023-04-24T00:20:27;4.63;;;2.63;;
75426;SDS011;64007;50.632;13.700;2023-04-24T00:22:54;5.80;;;2.53;;
75426;SDS011;64007;50.632;13.700;2023-04-24T00:25:21;6.75;;;2.53;;
75426;SDS011;64007;50.632;13.700;2023-04-24T00:27:46;3.65;;;2.35;;
75426;SDS011;64007;50.632;13.700;2023-04-24T00:30:12;3.03;;;2.00;;
75426;SDS011;64007;50.632;13.700;2023-04-24T00:32:38;3.22;;;2.08;;
75426;SDS011;64007;50.632;13.700;2023-04-24T00:35:04;4.57;;;2.00;;
75426;SDS011;64007;50.632;13.700;2023-04-24T00:37:31;4.15;;;1.92;;
75426;SDS011;64007;50.632;13.700;2023-04-24T00:39:57;5.60;;;2.38;;
75426;SDS011;64007;50.632;13.700;2023-04-24T00:42:22;4.18;;;2.13;;
75426;SDS011;64007;50.632;13.700;2023-04-24T00:44:49;3.83;;;2.28;;
75426;SDS011;64007;50.632;13.700;2023-04-24T00:47:15;3.75;;;2.15;;
75426;SDS011;64007;50.632;13.700;2023-04-24T00:49:41;9.52;;;2.33;;
75426;SDS011;64007;50.632;13.700;2023-04-24T00:52:07;2.70;;;1.70;;
75426;SDS011;64007;50.632;13.700;2023-04-24T00:54:34;6.68;;;2.50;;
75426;SDS011;64007;50.632;13.700;2023-04-24T00:57:02;6.43;;;2.15;;
75426;SDS011;64007;50.632;13.700;2023-04-24T00:59:29;4.03;;;2.38;;
75426;SDS011;64007;50.632;13.700;2023-04-24T01:01:55;10.43;;;3.83;;
75426;SDS011;64007;50.632;13.700;2023-04-24T01:04:21;9.70;;;4.05;;
75426;SDS011;64007;50.632;13.700;2023-04-24T01:06:47;12.27;;;4.32;;
75426;SDS011;64007;50.632;13.700;2023-04-24T01:09:15;10.20;;;3.72;;
75426;SDS011;64007;50.632;13.700;2023-04-24T01:11:42;10.88;;;4.10;;
75426;SDS011;64007;50.632;13.700;2023-04-24T01:14:08;6.75;;;4.50;;
75426;SDS011;64007;50.632;13.700;2023-04-24T01:16:34;12.27;;;6.22;;
75426;SDS011;64007;50.632;13.700;2023-04-24T01:19:01;10.98;;;7.13;;
75426;SDS011;64007;50.632;13.700;2023-04-24T01:21:27;11.23;;;6.97;;
75426;SDS011;64007;50.632;13.700;2023-04-24T01:23:55;11.85;;;6.45;;
75426;SDS011;64007;50.632;13.700;2023-04-24T01:26:22;13.27;;;7.20;;
75426;SDS011;64007;50.632;13.700;2023-04-24T01:28:48;15.68;;;6.70;;
75426;SDS011;64007;50.632;13.700;2023-04-24T01:31:14;16.08;;;6.88;;
75426;SDS011;64007;50.632;13.700;2023-04-24T01:33:41;13.45;;;7.20;;
75426;SDS011;64007;50.632;13.700;2023-04-24T01:36:07;17.35;;;7.63;;
75426;SDS011;64007;50.632;13.700;2023-04-24T01:38:35;13.13;;;7.40;;
75426;SDS011;64007;50.632;13.700;2023-04-24T01:41:01;12.32;;;7.68;;
75426;SDS011;64007;50.632;13.700;2023-04-24T01:43:28;13.95;;;7.25;;
75426;SDS011;64007;50.632;13.700;2023-04-24T01:45:54;14.77;;;7.15;;
75426;SDS011;64007;50.632;13.700;2023-04-24T01:48:19;13.55;;;7.72;;
75426;SDS011;64007;50.632;13.700;2023-04-24T01:50:45;16.17;;;8.52;;
75426;SDS011;64007;50.632;13.700;2023-04-24T01:53:11;12.00;;;7.57;;
75426;SDS011;64007;50.632;13.700;2023-04-24T01:55:37;17.33;;;7.57;;
75426;SDS011;64007;50.632;13.700;2023-04-24T01:58:03;17.25;;;10.40;;
75426;SDS011;64007;50.632;13.700;2023-04-24T02:00:28;21.85;;;11.65;;
75426;SDS011;64007;50.632;13.700;2023-04-24T02:02:54;25.73;;;15.38;;
75426;SDS011;64007;50.632;13.700;2023-04-24T02:05:20;20.52;;;11.45;;
75426;SDS011;64007;50.632;13.700;2023-04-24T02:07:46;29.85;;;16.25;;
75426;SDS011;64007;50.632;13.700;2023-04-24T02:10:11;27.25;;;15.82;;
75426;SDS011;64007;50.632;13.700;2023-04-24T02:12:37;16.58;;;10.77;;
75426;SDS011;64007;50.632;13.700;2023-04-24T02:15:03;14.52;;;9.55;;
75426;SDS011;64007;50.632;13.700;2023-04-24T02:17:29;12.93;;;7.72;;
75426;SDS011;64007;50.632;13.700;2023-04-24T02:19:55;15.52;;;7.95;;
75426;SDS011;64007;50.632;13.700;2023-04-24T02:22:21;16.77;;;7.32;;
75426;SDS011;64007;50.632;13.700;2023-04-24T02:24:47;11.70;;;7.35;;
75426;SDS011;64007;50.632;13.700;2023-04-24T02:27:12;13.82;;;7.65;;
75426;SDS011;64007;50.632;13.700;2023-04-24T02:29:38;14.77;;;8.25;;
75426;SDS011;64007;50.632;13.700;2023-04-24T02:32:04;13.43;;;7.72;;
75426;SDS011;64007;50.632;13.700;2023-04-24T02:34:29;13.23;;;7.78;;
75426;SDS011;64007;50.632;13.700;2023-04-24T02:36:55;15.57;;;8.48;;
75426;SDS011;64007;50.632;13.700;2023-04-24T02:39:21;12.13;;;8.10;;
75426;SDS011;64007;50.632;13.700;2023-04-24T02:41:47;16.15;;;8.60;;
75426;SDS011;64007;50.632;13.700;2023-04-24T02:44:13;12.40;;;7.97;;
75426;SDS011;64007;50.632;13.700;2023-04-24T02:46:39;16.75;;;8.80;;
75426;SDS011;64007;50.632;13.700;2023-04-24T02:49:06;11.80;;;8.52;;
75426;SDS011;64007;50.632;13.700;2023-04-24T02:51:32;13.85;;;8.27;;
75426;SDS011;64007;50.632;13.700;2023-04-24T02:53:57;13.60;;;8.77;;
75426;SDS011;64007;50.632;13.700;2023-04-24T02:56:23;16.98;;;9.07;;
75426;SDS011;64007;50.632;13.700;2023-04-24T02:58:49;16.65;;;9.32;;
75426;SDS011;64007;50.632;13.700;2023-04-24T03:01:14;19.15;;;10.45;;
75426;SDS011;64007;50.632;13.700;2023-04-24T03:03:40;18.00;;;10.57;;
75426;SDS011;64007;50.632;13.700;2023-04-24T03:06:06;16.95;;;9.90;;
75426;SDS011;64007;50.632;13.700;2023-04-24T03:08:33;19.63;;;10.50;;
75426;SDS011;64007;50.632;13.700;2023-04-24T03:10:59;16.55;;;10.00;;
75426;SDS011;64007;50.632;13.700;2023-04-24T03:13:25;16.15;;;10.18;;
75426;SDS011;64007;50.632;13.700;2023-04-24T03:15:50;17.13;;;9.50;;
75426;SDS011;64007;50.632;13.700;2023-04-24T03:18:16;15.50;;;8.77;;
75426;SDS011;64007;50.632;13.700;2023-04-24T03:20:44;17.42;;;9.10;;
75426;SDS011;64007;50.632;13.700;2023-04-24T03:23:11;18.40;;;10.10;;
75426;SDS011;64007;50.632;13.700;2023-04-24T03:25:37;19.35;;;10.00;;
75426;SDS011;64007;50.632;13.700;2023-04-24T03:28:03;14.43;;;9.38;;
75426;SDS011;64007;50.632;13.700;2023-04-24T03:30:28;17.35;;;10.60;;
75426;SDS011;64007;50.632;13.700;2023-04-24T03:32:54;15.90;;;9.57;;
75426;SDS011;64007;50.632;13.700;2023-04-24T03:35:20;16.65;;;9.32;;
75426;SDS011;64007;50.632;13.700;2023-04-24T03:37:47;17.45;;;9.30;;
75426;SDS011;64007;50.632;13.700;2023-04-24T03:40:13;16.60;;;10.07;;
75426;SDS011;64007;50.632;13.700;2023-04-24T03:42:38;17.15;;;10.10;;
75426;SDS011;64007;50.632;13.700;2023-04-24T03:45:04;18.08;;;9.70;;
75426;SDS011;64007;50.632;13.700;2023-04-24T03:47:30;14.23;;;9.20;;
75426;SDS011;64007;50.632;13.700;2023-04-24T03:49:56;18.73;;;10.13;;
75426;SDS011;64007;50.632;13.700;2023-04-24T03:52:22;18.90;;;11.02;;
75426;SDS011;64007;50.632;13.700;2023-04-24T03:54:48;19.38;;;10.60;;
75426;SDS011;64007;50.632;13.700;2023-04-24T03:57:13;18.40;;;10.45;;
75426;SDS011;64007;50.632;13.700;2023-04-24T03:59:39;20.38;;;10.65;;
75426;SDS011;64007;50.632;13.700;2023-04-24T04:02:04;23.50;;;11.15;;
75426;SDS011;64007;50.632;13.700;2023-04-24T04:04:30;16.38;;;10.27;;
75426;SDS011;64007;50.632;13.700;2023-04-24T04:06:56;16.88;;;9.88;;
75426;SDS011;64007;50.632;13.700;2023-04-24T04:09:22;23.52;;;10.90;;
75426;SDS011;64007;50.632;13.700;2023-04-24T04:11:47;16.98;;;10.43;;
75426;SDS011;64007;50.632;13.700;2023-04-24T04:14:13;20.48;;;10.48;;
75426;SDS011;64007;50.632;13.700;2023-04-24T04:16:39;22.10;;;11.85;;
75426;SDS011;64007;50.632;13.700;2023-04-24T04:19:05;21.67;;;12.18;;
75426;SDS011;64007;50.632;13.700;2023-04-24T04:21:30;24.75;;;13.80;;
75426;SDS011;64007;50.632;13.700;2023-04-24T04:23:57;29.42;;;13.88;;
75426;SDS011;64007;50.632;13.700;2023-04-24T04:26:23;21.08;;;12.52;;
75426;SDS011;64007;50.632;13.700;2023-04-24T04:28:51;25.45;;;13.68;;
75426;SDS011;64007;50.632;13.700;2023-04-24T04:31:18;26.70;;;14.40;;
75426;SDS011;64007;50.632;13.700;2023-04-24T04:33:45;28.50;;;14.68;;
75426;SDS011;64007;50.632;13.700;2023-04-24T04:36:10;29.83;;;14.65;;
75426;SDS011;64007;50.632;13.700;2023-04-24T04:38:37;25.98;;;13.95;;
75426;SDS011;64007;50.632;13.700;2023-04-24T04:41:03;27.58;;;13.27;;
75426;SDS011;64007;50.632;13.700;2023-04-24T04:43:29;25.30;;;13.25;;
75426;SDS011;64007;50.632;13.700;2023-04-24T04:45:56;26.80;;;15.25;;
75426;SDS011;64007;50.632;13.700;2023-04-24T04:48:23;30.00;;;15.13;;
75426;SDS011;64007;50.632;13.700;2023-04-24T04:50:48;29.55;;;14.70;;
75426;SDS011;64007;50.632;13.700;2023-04-24T04:53:14;29.13;;;15.35;;
75426;SDS011;64007;50.632;13.700;2023-04-24T04:55:40;33.15;;;18.17;;
75426;SDS011;64007;50.632;13.700;2023-04-24T04:58:06;38.40;;;17.08;;
75426;SDS011;64007;50.632;13.700;2023-04-24T05:00:31;28.73;;;15.00;;
75426;SDS011;64007;50.632;13.700;2023-04-24T05:03:01;27.23;;;15.07;;
75426;SDS011;64007;50.632;13.700;2023-04-24T05:05:27;30.70;;;15.32;;
75426;SDS011;64007;50.632;13.700;2023-04-24T05:07:53;26.63;;;14.70;;
75426;SDS011;64007;50.632;13.700;2023-04-24T05:10:19;37.47;;;15.95;;
75426;SDS011;64007;50.632;13.700;2023-04-24T05:12:45;33.22;;;16.98;;
75426;SDS011;64007;50.632;13.700;2023-04-24T05:15:10;28.60;;;16.50;;
75426;SDS011;64007;50.632;13.700;2023-04-24T05:17:36;31.55;;;17.55;;
75426;SDS011;64007;50.632;13.700;2023-04-24T05:20:02;37.55;;;17.92;;
75426;SDS011;64007;50.632;13.700;2023-04-24T05:22:31;31.77;;;17.02;;
75426;SDS011;64007;50.632;13.700;2023-04-24T05:24:56;30.45;;;16.25;;
75426;SDS011;64007;50.632;13.700;2023-04-24T05:27:23;30.65;;;16.85;;
75426;SDS011;64007;50.632;13.700;2023-04-24T05:29:49;26.77;;;14.68;;
75426;SDS011;64007;50.632;13.700;2023-04-24T05:32:15;29.13;;;15.18;;
75426;SDS011;64007;50.632;13.700;2023-04-24T05:34:40;26.17;;;14.82;;
75426;SDS011;64007;50.632;13.700;2023-04-24T05:37:06;25.48;;;14.10;;
75426;SDS011;64007;50.632;13.700;2023-04-24T05:39:35;27.30;;;15.40;;
75426;SDS011;64007;50.632;13.700;2023-04-24T05:42:01;32.55;;;15.88;;
75426;SDS011;64007;50.632;13.700;2023-04-24T05:44:29;29.20;;;14.75;;
75426;SDS011;64007;50.632;13.700;2023-04-24T05:46:56;24.83;;;13.57;;
75426;SDS011;64007;50.632;13.700;2023-04-24T05:49:22;23.33;;;11.65;;
75426;SDS011;64007;50.632;13.700;2023-04-24T05:51:48;18.63;;;10.90;;
75426;SDS011;64007;50.632;13.700;2023-04-24T05:54:14;27.52;;;11.27;;
75426;SDS011;64007;50.632;13.700;2023-04-24T05:56:40;22.27;;;11.45;;
75426;SDS011;64007;50.632;13.700;2023-04-24T05:59:05;24.85;;;12.50;;
75426;SDS011;64007;50.632;13.700;2023-04-24T06:01:31;26.98;;;11.55;;
75426;SDS011;64007;50.632;13.700;2023-04-24T06:03:57;22.15;;;11.57;;
75426;SDS011;64007;50.632;13.700;2023-04-24T06:06:23;25.15;;;11.90;;
75426;SDS011;64007;50.632;13.700;2023-04-24T06:08:49;20.45;;;10.80;;
75426;SDS011;64007;50.632;13.700;2023-04-24T06:11:15;19.25;;;11.02;;
75426;SDS011;64007;50.632;13.700;2023-04-24T06:13:41;17.55;;;10.82;;
75426;SDS011;64007;50.632;13.700;2023-04-24T06:16:07;20.85;;;11.80;;
75426;SDS011;64007;50.632;13.700;2023-04-24T06:18:33;23.85;;;11.57;;
75426;SDS011;64007;50.632;13.700;2023-04-24T06:20:59;18.83;;;11.68;;
75426;SDS011;64007;50.632;13.700;2023-04-24T06:23:24;22.70;;;11.90;;
75426;SDS011;64007;50.632;13.700;2023-04-24T06:25:51;25.10;;;10.75;;
75426;SDS011;64007;50.632;13.700;2023-04-24T06:28:16;21.10;;;11.75;;
75426;SDS011;64007;50.632;13.700;2023-04-24T06:30:42;17.85;;;11.15;;
75426;SDS011;64007;50.632;13.700;2023-04-24T06:33:08;18.15;;;11.25;;
75426;SDS011;64007;50.632;13.700;2023-04-24T06:35:35;19.70;;;11.25;;
75426;SDS011;64007;50.632;13.700;2023-04-24T06:38:01;33.13;;;10.85;;
75426;SDS011;64007;50.632;13.700;2023-04-24T06:40:27;21.98;;;10.32;;
75426;SDS011;64007;50.632;13.700;2023-04-24T06:42:53;19.77;;;10.77;;
75426;SDS011;64007;50.632;13.700;2023-04-24T06:45:18;19.60;;;11.10;;
75426;SDS011;64007;50.632;13.700;2023-04-24T06:47:44;20.65;;;10.55;;
75426;SDS011;64007;50.632;13.700;2023-04-24T06:50:10;16.35;;;9.88;;
75426;SDS011;64007;50.632;13.700;2023-04-24T06:52:36;15.65;;;9.65;;
75426;SDS011;64007;50.632;13.700;2023-04-24T06:55:03;15.88;;;8.25;;
75426;SDS011;64007;50.632;13.700;2023-04-24T06:57:29;15.38;;;8.68;;
75426;SDS011;64007;50.632;13.700;2023-04-24T06:59:55;13.13;;;7.88;;
75426;SDS011;64007;50.632;13.700;2023-04-24T07:02:22;9.93;;;7.22;;
75426;SDS011;64007;50.632;13.700;2023-04-24T07:04:48;12.65;;;6.88;;
75426;SDS011;64007;50.632;13.700;2023-04-24T07:07:14;15.38;;;7.85;;
75426;SDS011;64007;50.632;13.700;2023-04-24T07:09:40;15.38;;;7.45;;
75426;SDS011;64007;50.632;13.700;2023-04-24T07:12:09;16.95;;;7.47;;
75426;SDS011;64007;50.632;13.700;2023-04-24T07:14:39;18.13;;;8.18;;
75426;SDS011;64007;50.632;13.700;2023-04-24T07:17:05;14.52;;;7.75;;
75426;SDS011;64007;50.632;13.700;2023-04-24T07:19:32;14.80;;;7.35;;
75426;SDS011;64007;50.632;13.700;2023-04-24T07:21:59;15.18;;;6.78;;
75426;SDS011;64007;50.632;13.700;2023-04-24T07:24:25;15.07;;;6.75;;
75426;SDS011;64007;50.632;13.700;2023-04-24T07:26:51;13.27;;;7.03;;
75426;SDS011;64007;50.632;13.700;2023-04-24T07:29:18;17.00;;;7.40;;
75426;SDS011;64007;50.632;13.700;2023-04-24T07:31:45;17.33;;;7.88;;
75426;SDS011;64007;50.632;13.700;2023-04-24T07:34:11;18.13;;;7.70;;
75426;SDS011;64007;50.632;13.700;2023-04-24T07:36:36;22.20;;;8.93;;
75426;SDS011;64007;50.632;13.700;2023-04-24T07:39:04;20.50;;;7.68;;
75426;SDS011;64007;50.632;13.700;2023-04-24T07:41:31;20.00;;;7.85;;
75426;SDS011;64007;50.632;13.700;2023-04-24T07:43:57;18.60;;;6.90;;
75426;SDS011;64007;50.632;13.700;2023-04-24T07:46:23;17.58;;;6.75;;
75426;SDS011;64007;50.632;13.700;2023-04-24T07:48:50;10.23;;;5.50;;
75426;SDS011;64007;50.632;13.700;2023-04-24T07:51:16;15.30;;;7.68;;
75426;SDS011;64007;50.632;13.700;2023-04-24T07:53:42;41.45;;;13.50;;
75426;SDS011;64007;50.632;13.700;2023-04-24T07:56:08;13.10;;;6.00;;
75426;SDS011;64007;50.632;13.700;2023-04-24T07:58:34;8.77;;;4.63;;
75426;SDS011;64007;50.632;13.700;2023-04-24T08:01:00;14.93;;;4.10;;
75426;SDS011;64007;50.632;13.700;2023-04-24T08:03:26;13.10;;;3.47;;
75426;SDS011;64007;50.632;13.700;2023-04-24T08:05:52;8.23;;;3.53;;
75426;SDS011;64007;50.632;13.700;2023-04-24T08:08:19;6.32;;;2.95;;
75426;SDS011;64007;50.632;13.700;2023-04-24T08:10:46;10.18;;;2.35;;
75426;SDS011;64007;50.632;13.700;2023-04-24T08:13:12;9.18;;;2.00;;
75426;SDS011;64007;50.632;13.700;2023-04-24T08:15:37;6.43;;;2.25;;
75426;SDS011;64007;50.632;13.700;2023-04-24T08:18:03;5.80;;;2.60;;
75426;SDS011;64007;50.632;13.700;2023-04-24T08:20:29;11.02;;;2.60;;
75426;SDS011;64007;50.632;13.700;2023-04-24T08:22:55;12.35;;;2.40;;
75426;SDS011;64007;50.632;13.700;2023-04-24T08:25:21;10.75;;;2.50;;
75426;SDS011;64007;50.632;13.700;2023-04-24T08:27:48;10.23;;;2.22;;
75426;SDS011;64007;50.632;13.700;2023-04-24T08:30:14;13.75;;;2.13;;
75426;SDS011;64007;50.632;13.700;2023-04-24T08:32:40;5.72;;;1.90;;
75426;SDS011;64007;50.632;13.700;2023-04-24T08:35:05;7.57;;;1.95;;
75426;SDS011;64007;50.632;13.700;2023-04-24T08:37:34;4.32;;;2.25;;
75426;SDS011;64007;50.632;13.700;2023-04-24T08:40:01;3.63;;;2.10;;
75426;SDS011;64007;50.632;13.700;2023-04-24T08:42:31;10.02;;;2.42;;
75426;SDS011;64007;50.632;13.700;2023-04-24T08:44:58;6.68;;;2.17;;
75426;SDS011;64007;50.632;13.700;2023-04-24T08:47:24;5.00;;;2.35;;
75426;SDS011;64007;50.632;13.700;2023-04-24T08:49:51;5.32;;;2.10;;
75426;SDS011;64007;50.632;13.700;2023-04-24T08:52:19;4.85;;;2.45;;
75426;SDS011;64007;50.632;13.700;2023-04-24T08:54:47;7.00;;;2.40;;
75426;SDS011;64007;50.632;13.700;2023-04-24T08:57:14;7.55;;;2.42;;
75426;SDS011;64007;50.632;13.700;2023-04-24T08:59:40;6.53;;;2.45;;
75426;SDS011;64007;50.632;13.700;2023-04-24T09:02:06;4.10;;;2.00;;
75426;SDS011;64007;50.632;13.700;2023-04-24T09:04:35;6.25;;;2.30;;
75426;SDS011;64007;50.632;13.700;2023-04-24T09:07:02;9.48;;;2.25;;
75426;SDS011;64007;50.632;13.700;2023-04-24T09:09:30;8.93;;;2.58;;
75426;SDS011;64007;50.632;13.700;2023-04-24T09:11:58;8.50;;;2.72;;
75426;SDS011;64007;50.632;13.700;2023-04-24T09:14:23;5.60;;;2.80;;
75426;SDS011;64007;50.632;13.700;2023-04-24T09:16:49;5.50;;;2.60;;
75426;SDS011;64007;50.632;13.700;2023-04-24T09:19:15;4.40;;;2.92;;
75426;SDS011;64007;50.632;13.700;2023-04-24T09:21:41;7.75;;;2.80;;
75426;SDS011;64007;50.632;13.700;2023-04-24T09:24:18;4.28;;;2.42;;
75426;SDS011;64007;50.632;13.700;2023-04-24T09:26:48;7.00;;;3.22;;
75426;SDS011;64007;50.632;13.700;2023-04-24T09:29:22;7.13;;;2.70;;
75426;SDS011;64007;50.632;13.700;2023-04-24T09:31:48;7.50;;;3.20;;
75426;SDS011;64007;50.632;13.700;2023-04-24T09:34:13;7.13;;;2.95;;
75426;SDS011;64007;50.632;13.700;2023-04-24T09:36:40;6.28;;;3.03;;
75426;SDS011;64007;50.632;13.700;2023-04-24T09:41:43;5.28;;;2.95;;
75426;SDS011;64007;50.632;13.700;2023-04-24T09:44:14;5.75;;;2.70;;
75426;SDS011;64007;50.632;13.700;2023-04-24T09:46:44;10.02;;;3.55;;
75426;SDS011;64007;50.632;13.700;2023-04-24T09:49:15;6.13;;;3.15;;
75426;SDS011;64007;50.632;13.700;2023-04-24T09:51:42;9.73;;;3.40;;
75426;SDS011;64007;50.632;13.700;2023-04-24T09:54:19;7.30;;;3.55;;
75426;SDS011;64007;50.632;13.700;2023-04-24T09:56:47;8.95;;;3.70;;
75426;SDS011;64007;50.632;13.700;2023-04-24T09:59:15;8.55;;;3.20;;
75426;SDS011;64007;50.632;13.700;2023-04-24T10:01:41;5.25;;;2.97;;
75426;SDS011;64007;50.632;13.700;2023-04-24T10:06:43;3.67;;;2.50;;
75426;SDS011;64007;50.632;13.700;2023-04-24T10:09:10;5.72;;;3.45;;
75426;SDS011;64007;50.632;13.700;2023-04-24T10:11:43;10.82;;;2.83;;
75426;SDS011;64007;50.632;13.700;2023-04-24T10:14:11;8.07;;;2.63;;
75426;SDS011;64007;50.632;13.700;2023-04-24T10:16:39;6.95;;;2.90;;
75426;SDS011;64007;50.632;13.700;2023-04-24T10:19:06;6.65;;;3.20;;
75426;SDS011;64007;50.632;13.700;2023-04-24T10:21:32;7.60;;;2.47;;
75426;SDS011;64007;50.632;13.700;2023-04-24T10:23:59;4.90;;;1.92;;
75426;SDS011;64007;50.632;13.700;2023-04-24T10:26:25;6.20;;;2.50;;
75426;SDS011;64007;50.632;13.700;2023-04-24T10:28:52;5.30;;;2.13;;
75426;SDS011;64007;50.632;13.700;2023-04-24T10:31:20;4.70;;;2.00;;
75426;SDS011;64007;50.632;13.700;2023-04-24T10:33:46;3.40;;;1.38;;
75426;SDS011;64007;50.632;13.700;2023-04-24T10:36:12;3.45;;;1.80;;
75426;SDS011;64007;50.632;13.700;2023-04-24T10:38:40;8.98;;;2.15;;
75426;SDS011;64007;50.632;13.700;2023-04-24T10:41:12;4.28;;;1.70;;
75426;SDS011;64007;50.632;13.700;2023-04-24T10:43:44;3.40;;;1.77;;
75426;SDS011;64007;50.632;13.700;2023-04-24T10:46:11;3.10;;;1.80;;
75426;SDS011;64007;50.632;13.700;2023-04-24T10:48:44;5.93;;;1.88;;
75426;SDS011;64007;50.632;13.700;2023-04-24T10:51:21;7.13;;;1.67;;
75426;SDS011;64007;50.632;13.700;2023-04-24T10:53:49;4.80;;;1.85;;
75426;SDS011;64007;50.632;13.700;2023-04-24T10:56:17;4.05;;;1.85;;
75426;SDS011;64007;50.632;13.700;2023-04-24T10:58:44;4.60;;;2.10;;
75426;SDS011;64007;50.632;13.700;2023-04-24T11:01:32;2.97;;;1.70;;
75426;SDS011;64007;50.632;13.700;2023-04-24T11:04:01;9.77;;;2.10;;
75426;SDS011;64007;50.632;13.700;2023-04-24T11:06:29;5.90;;;1.90;;
75426;SDS011;64007;50.632;13.700;2023-04-24T11:09:09;5.40;;;2.13;;
75426;SDS011;64007;50.632;13.700;2023-04-24T11:11:38;4.13;;;1.70;;
75426;SDS011;64007;50.632;13.700;2023-04-24T11:14:10;3.65;;;1.73;;
75426;SDS011;64007;50.632;13.700;2023-04-24T11:19:17;3.20;;;1.38;;
75426;SDS011;64007;50.632;13.700;2023-04-24T11:22:00;2.95;;;1.05;;
75426;SDS011;64007;50.632;13.700;2023-04-24T11:24:49;2.88;;;1.05;;
75426;SDS011;64007;50.632;13.700;2023-04-24T11:27:19;2.17;;;1.20;;
75426;SDS011;64007;50.632;13.700;2023-04-24T11:29:58;3.33;;;1.10;;
75426;SDS011;64007;50.632;13.700;2023-04-24T11:32:41;4.05;;;1.05;;
75426;SDS011;64007;50.632;13.700;2023-04-24T11:35:12;1.23;;;0.90;;
75426;SDS011;64007;50.632;13.700;2023-04-24T11:37:44;3.13;;;1.10;;
75426;SDS011;64007;50.632;13.700;2023-04-24T11:40:12;2.17;;;1.10;;
75426;SDS011;64007;50.632;13.700;2023-04-24T11:42:41;2.80;;;1.00;;
75426;SDS011;64007;50.632;13.700;2023-04-24T11:47:38;5.88;;;1.15;;
75426;SDS011;64007;50.632;13.700;2023-04-24T11:50:05;1.30;;;0.80;;
75426;SDS011;64007;50.632;13.700;2023-04-24T11:52:36;1.50;;;0.98;;
75426;SDS011;64007;50.632;13.700;2023-04-24T11:55:03;1.73;;;0.90;;
75426;SDS011;64007;50.632;13.700;2023-04-24T11:57:32;2.65;;;1.13;;
75426;SDS011;64007;50.632;13.700;2023-04-24T12:00:03;1.35;;;0.77;;
75426;SDS011;64007;50.632;13.700;2023-04-24T12:02:33;2.05;;;0.95;;
75426;SDS011;64007;50.632;13.700;2023-04-24T12:04:59;2.50;;;0.90;;
75426;SDS011;64007;50.632;13.700;2023-04-24T12:07:25;1.58;;;0.80;;
75426;SDS011;64007;50.632;13.700;2023-04-24T12:09:57;3.00;;;1.35;;
75426;SDS011;64007;50.632;13.700;2023-04-24T12:12:27;1.58;;;0.70;;
75426;SDS011;64007;50.632;13.700;2023-04-24T12:14:56;1.77;;;0.80;;
75426;SDS011;64007;50.632;13.700;2023-04-24T12:17:24;1.77;;;0.80;;
75426;SDS011;64007;50.632;13.700;2023-04-24T12:19:51;3.05;;;0.90;;
75426;SDS011;64007;50.632;13.700;2023-04-24T12:22:18;1.73;;;0.70;;
75426;SDS011;64007;50.632;13.700;2023-04-24T12:27:29;2.50;;;1.00;;
75426;SDS011;64007;50.632;13.700;2023-04-24T12:29:58;1.40;;;0.80;;
75426;SDS011;64007;50.632;13.700;2023-04-24T12:32:25;3.63;;;1.25;;
75426;SDS011;64007;50.632;13.700;2023-04-24T12:34:52;1.85;;;0.70;;
75426;SDS011;64007;50.632;13.700;2023-04-24T12:37:18;1.48;;;0.70;;
75426;SDS011;64007;50.632;13.700;2023-04-24T12:40:00;4.18;;;0.85;;
75426;SDS011;64007;50.632;13.700;2023-04-24T12:42:42;1.23;;;0.80;;
75426;SDS011;64007;50.632;13.700;2023-04-24T12:45:09;1.80;;;0.80;;
75426;SDS011;64007;50.632;13.700;2023-04-24T12:47:37;2.00;;;0.80;;
75426;SDS011;64007;50.632;13.700;2023-04-24T12:50:05;0.93;;;0.60;;
75426;SDS011;64007;50.632;13.700;2023-04-24T12:52:35;2.97;;;0.50;;
75426;SDS011;64007;50.632;13.700;2023-04-24T12:55:01;0.70;;;0.55;;
75426;SDS011;64007;50.632;13.700;2023-04-24T12:57:30;1.13;;;0.60;;
75426;SDS011;64007;50.632;13.700;2023-04-24T12:59:57;1.83;;;0.68;;
75426;SDS011;64007;50.632;13.700;2023-04-24T13:02:24;6.65;;;0.60;;
75426;SDS011;64007;50.632;13.700;2023-04-24T13:04:51;3.08;;;0.50;;
75426;SDS011;64007;50.632;13.700;2023-04-24T13:07:17;0.85;;;0.55;;
75426;SDS011;64007;50.632;13.700;2023-04-24T13:09:43;1.75;;;0.60;;
75426;SDS011;64007;50.632;13.700;2023-04-24T13:12:10;2.17;;;0.60;;
75426;SDS011;64007;50.632;13.700;2023-04-24T13:14:37;0.60;;;0.50;;
75426;SDS011;64007;50.632;13.700;2023-04-24T13:17:03;0.75;;;0.50;;
75426;SDS011;64007;50.632;13.700;2023-04-24T13:19:29;0.90;;;0.50;;
75426;SDS011;64007;50.632;13.700;2023-04-24T13:22:00;1.00;;;0.47;;
75426;SDS011;64007;50.632;13.700;2023-04-24T13:24:26;0.43;;;0.40;;
75426;SDS011;64007;50.632;13.700;2023-04-24T13:26:52;0.55;;;0.52;;
75426;SDS011;64007;50.632;13.700;2023-04-24T13:29:18;1.25;;;0.73;;
75426;SDS011;64007;50.632;13.700;2023-04-24T13:31:50;0.50;;;0.50;;
75426;SDS011;64007;50.632;13.700;2023-04-24T13:34:16;1.30;;;0.50;;
75426;SDS011;64007;50.632;13.700;2023-04-24T13:36:43;0.55;;;0.50;;
75426;SDS011;64007;50.632;13.700;2023-04-24T13:39:09;1.08;;;0.60;;
75426;SDS011;64007;50.632;13.700;2023-04-24T13:41:35;0.95;;;0.50;;
75426;SDS011;64007;50.632;13.700;2023-04-24T13:44:01;3.28;;;0.60;;
75426;SDS011;64007;50.632;13.700;2023-04-24T13:46:28;1.73;;;0.70;;
75426;SDS011;64007;50.632;13.700;2023-04-24T13:48:54;1.35;;;0.60;;
75426;SDS011;64007;50.632;13.700;2023-04-24T13:51:20;2.10;;;0.60;;
75426;SDS011;64007;50.632;13.700;2023-04-24T13:53:46;1.05;;;0.50;;
75426;SDS011;64007;50.632;13.700;2023-04-24T13:56:11;0.93;;;0.70;;
75426;SDS011;64007;50.632;13.700;2023-04-24T13:58:39;1.55;;;1.10;;
75426;SDS011;64007;50.632;13.700;2023-04-24T14:01:05;0.60;;;0.60;;
75426;SDS011;64007;50.632;13.700;2023-04-24T14:03:30;1.80;;;0.60;;
75426;SDS011;64007;50.632;13.700;2023-04-24T14:05:56;1.30;;;0.60;;
75426;SDS011;64007;50.632;13.700;2023-04-24T14:08:22;0.50;;;0.50;;
75426;SDS011;64007;50.632;13.700;2023-04-24T14:10:49;2.03;;;0.70;;
75426;SDS011;64007;50.632;13.700;2023-04-24T14:13:15;0.52;;;0.52;;
75426;SDS011;64007;50.632;13.700;2023-04-24T14:15:42;0.80;;;0.60;;
75426;SDS011;64007;50.632;13.700;2023-04-24T14:18:07;0.85;;;0.50;;
75426;SDS011;64007;50.632;13.700;2023-04-24T14:20:33;1.80;;;0.50;;
75426;SDS011;64007;50.632;13.700;2023-04-24T14:22:59;1.52;;;0.70;;
75426;SDS011;64007;50.632;13.700;2023-04-24T14:25:25;0.80;;;0.60;;
75426;SDS011;64007;50.632;13.700;2023-04-24T14:27:51;1.10;;;0.63;;
75426;SDS011;64007;50.632;13.700;2023-04-24T14:30:17;1.58;;;0.63;;
75426;SDS011;64007;50.632;13.700;2023-04-24T14:32:43;0.60;;;0.50;;
75426;SDS011;64007;50.632;13.700;2023-04-24T14:35:09;0.70;;;0.60;;